createdAt,value
2018-07-25T00:00:42.365Z,18.30
2018-07-25T00:03:10.506Z,18.30
2018-07-25T00:05:38.617Z,18.30
2018-07-25T00:08:06.709Z,18.30
2018-07-25T00:10:40.493Z,18.30
2018-07-25T00:13:08.567Z,18.30
2018-07-25T00:15:36.637Z,18.30
2018-07-25T00:18:04.734Z,18.30
2018-07-25T00:20:32.883Z,18.40
2018-07-25T00:23:00.978Z,18.40
2018-07-25T00:25:29.046Z,18.40
2018-07-25T00:27:57.129Z,18.40
2018-07-25T00:30:25.201Z,18.40
2018-07-25T00:32:53.337Z,18.50
2018-07-25T00:35:21.442Z,18.50
2018-07-25T00:37:49.535Z,18.60
2018-07-25T00:40:17.585Z,18.60
2018-07-25T00:42:45.721Z,18.60
2018-07-25T00:45:13.890Z,18.60
2018-07-25T00:47:42.051Z,18.60
2018-07-25T00:50:10.199Z,18.60
2018-07-25T00:52:38.328Z,18.60
2018-07-25T00:55:06.431Z,18.50
2018-07-25T00:57:34.551Z,18.50
2018-07-25T01:00:02.803Z,18.50
2018-07-25T01:02:30.948Z,18.50
2018-07-25T01:04:59.032Z,18.50
2018-07-25T01:09:55.040Z,18.60
2018-07-25T01:12:23.223Z,18.50
2018-07-25T01:14:51.590Z,18.50
2018-07-25T01:17:19.679Z,18.50
2018-07-25T01:19:47.774Z,18.50
2018-07-25T01:22:15.883Z,18.40
2018-07-25T01:24:43.992Z,18.40
2018-07-25T01:27:12.083Z,18.40
2018-07-25T01:29:40.189Z,18.40
2018-07-25T01:32:08.342Z,18.40
2018-07-25T01:34:36.444Z,18.40
2018-07-25T01:37:04.576Z,18.40
2018-07-25T01:39:32.706Z,18.40
2018-07-25T01:42:00.760Z,18.40
2018-07-25T01:44:28.842Z,18.30
2018-07-25T01:46:56.900Z,18.30
2018-07-25T01:49:25.009Z,18.40
2018-07-25T01:51:53.118Z,18.30
2018-07-25T01:54:21.284Z,18.30
2018-07-25T01:56:49.356Z,18.30
2018-07-25T01:59:17.477Z,18.30
2018-07-25T02:01:45.690Z,18.30
2018-07-25T02:04:13.803Z,18.30
2018-07-25T02:06:41.931Z,18.30
2018-07-25T02:09:10.865Z,18.30
2018-07-25T02:11:39.109Z,18.30
2018-07-25T02:14:07.209Z,18.40
2018-07-25T02:16:35.346Z,18.40
2018-07-25T02:19:03.461Z,18.30
2018-07-25T02:21:31.562Z,18.40
2018-07-25T02:23:59.671Z,18.40
2018-07-25T02:26:27.824Z,18.30
2018-07-25T02:28:55.905Z,18.20
2018-07-25T02:31:24.053Z,18.20
2018-07-25T02:33:57.720Z,18.10
2018-07-25T02:36:25.778Z,18.00
2018-07-25T02:38:53.934Z,18.00
2018-07-25T02:41:22.753Z,18.00
2018-07-25T02:43:50.887Z,17.90
2018-07-25T02:48:46.736Z,17.90
2018-07-25T02:51:15.255Z,17.80
2018-07-25T02:53:43.309Z,17.80
2018-07-25T02:56:11.442Z,17.80
2018-07-25T02:58:39.538Z,17.80
2018-07-25T03:01:07.633Z,17.80
2018-07-25T03:03:35.743Z,17.80
2018-07-25T03:06:03.830Z,17.80
2018-07-25T03:08:31.959Z,17.80
2018-07-25T03:11:00.119Z,17.80
2018-07-25T03:13:28.199Z,17.70
2018-07-25T03:16:02.615Z,17.70
2018-07-25T03:18:30.784Z,17.70
2018-07-25T03:20:59.973Z,17.70
2018-07-25T03:23:28.589Z,17.70
2018-07-25T03:25:56.697Z,17.70
2018-07-25T03:28:25.423Z,17.60
2018-07-25T03:30:53.784Z,17.70
2018-07-25T03:33:22.439Z,17.60
2018-07-25T03:35:50.540Z,17.60
2018-07-25T03:38:18.659Z,17.60
2018-07-25T03:40:47.407Z,17.60
2018-07-25T03:43:15.750Z,17.60
2018-07-25T03:45:44.277Z,17.60
2018-07-25T03:48:12.438Z,17.60
2018-07-25T03:50:40.511Z,17.60
2018-07-25T03:53:08.691Z,17.60
2018-07-25T03:55:36.825Z,17.60
2018-07-25T03:58:05.109Z,17.70
2018-07-25T04:00:33.258Z,17.80
2018-07-25T04:03:01.992Z,17.70
2018-07-25T04:05:30.100Z,17.80
2018-07-25T04:07:58.151Z,17.80
2018-07-25T04:10:26.272Z,17.90
2018-07-25T04:12:54.444Z,18.00
2018-07-25T04:15:22.638Z,18.10
2018-07-25T04:17:50.701Z,18.10
2018-07-25T04:20:19.616Z,18.20
2018-07-25T04:22:47.746Z,18.40
2018-07-25T04:25:15.893Z,18.40
2018-07-25T04:27:45.092Z,18.50
2018-07-25T04:30:14.274Z,18.60
2018-07-25T04:32:43.185Z,18.70
2018-07-25T04:35:12.479Z,18.70
2018-07-25T04:37:41.055Z,18.80
2018-07-25T04:40:09.241Z,18.80
2018-07-25T04:42:37.628Z,18.90
2018-07-25T04:45:07.115Z,19.00
2018-07-25T04:47:35.222Z,19.00
2018-07-25T04:50:03.730Z,19.10
2018-07-25T04:52:31.843Z,19.10
2018-07-25T04:54:59.915Z,19.20
2018-07-25T04:57:28.138Z,19.30
2018-07-25T04:59:56.184Z,19.30
2018-07-25T05:02:24.327Z,19.40
2018-07-25T05:04:52.429Z,19.40
2018-07-25T05:09:49.289Z,19.60
2018-07-25T05:12:17.470Z,19.70
2018-07-25T05:14:45.579Z,19.90
2018-07-25T05:17:13.698Z,20.10
2018-07-25T05:19:41.840Z,20.20
2018-07-25T05:22:09.896Z,20.40
2018-07-25T05:24:38.033Z,20.60
2018-07-25T05:29:33.977Z,21.00
2018-07-25T05:32:02.125Z,21.10
2018-07-25T05:34:30.281Z,21.30
2018-07-25T05:36:58.333Z,21.40
2018-07-25T05:39:26.517Z,21.60
2018-07-25T05:41:54.578Z,21.70
2018-07-25T05:44:23.290Z,21.90
2018-07-25T05:46:51.416Z,22.00
2018-07-25T05:51:47.534Z,22.40
2018-07-25T05:54:15.714Z,22.50
2018-07-25T05:59:11.665Z,22.70
2018-07-25T06:01:39.742Z,22.70
2018-07-25T06:04:08.399Z,22.70
2018-07-25T06:06:36.497Z,22.60
2018-07-25T06:09:07.983Z,22.60
2018-07-25T06:11:36.154Z,22.60
2018-07-25T06:14:04.267Z,22.70
2018-07-25T06:16:32.371Z,22.70
2018-07-25T06:21:28.394Z,22.90
2018-07-25T06:23:57.119Z,23.00
2018-07-25T06:26:25.297Z,23.20
2018-07-25T06:28:53.360Z,23.30
2018-07-25T06:31:21.576Z,23.50
2018-07-25T06:33:49.661Z,23.70
2018-07-25T06:36:17.709Z,23.80
2018-07-25T06:38:45.809Z,23.90
2018-07-25T06:41:13.966Z,24.00
2018-07-25T06:43:42.127Z,24.20
2018-07-25T06:46:10.211Z,24.40
2018-07-25T06:48:38.281Z,24.50
2018-07-25T06:51:07.126Z,24.70
2018-07-25T06:53:35.248Z,24.80
2018-07-25T06:56:03.372Z,24.90
2018-07-25T07:00:59.493Z,25.10
2018-07-25T07:03:27.671Z,25.30
2018-07-25T07:05:55.830Z,25.40
2018-07-25T07:08:24.008Z,25.30
2018-07-25T07:10:52.125Z,25.50
2018-07-25T07:13:20.181Z,25.60
2018-07-25T07:15:48.304Z,25.60
2018-07-25T07:18:16.439Z,25.60
2018-07-25T07:20:44.597Z,25.80
2018-07-25T07:23:12.679Z,25.90
2018-07-25T07:25:40.753Z,25.90
2018-07-25T07:30:36.705Z,26.40
2018-07-25T07:33:04.857Z,26.60
2018-07-25T07:38:01.661Z,27.10
2018-07-25T07:40:29.715Z,27.10
2018-07-25T07:42:57.777Z,27.40
2018-07-25T07:45:25.869Z,27.50
2018-07-25T07:47:53.926Z,27.60
2018-07-25T07:50:22.198Z,27.60
2018-07-25T07:52:50.537Z,27.70
2018-07-25T07:55:18.633Z,27.70
2018-07-25T07:57:46.675Z,27.90
2018-07-25T08:02:42.644Z,28.00
2018-07-25T08:05:10.803Z,28.00
2018-07-25T08:07:38.893Z,28.00
2018-07-25T08:10:07.059Z,28.00
2018-07-25T08:12:35.217Z,28.00
2018-07-25T08:15:03.421Z,28.30
2018-07-25T08:17:31.532Z,28.40
2018-07-25T08:19:59.689Z,28.40
2018-07-25T08:22:27.736Z,28.50
2018-07-25T08:24:55.898Z,29.00
2018-07-25T08:27:24.009Z,29.10
2018-07-25T08:29:52.139Z,29.50
2018-07-25T08:32:20.324Z,29.60
2018-07-25T08:34:48.629Z,29.80
2018-07-25T08:37:16.721Z,30.00
2018-07-25T08:39:44.909Z,29.90
2018-07-25T08:42:12.946Z,29.80
2018-07-25T08:44:41.068Z,30.00
2018-07-25T08:47:10.097Z,30.10
2018-07-25T08:49:38.171Z,30.30
2018-07-25T08:52:06.302Z,30.30
2018-07-25T08:54:34.370Z,30.30
2018-07-25T08:57:03.280Z,30.10
2018-07-25T08:59:31.365Z,30.20
2018-07-25T09:01:59.463Z,30.20
2018-07-25T09:04:27.555Z,30.60
2018-07-25T09:06:55.600Z,31.00
2018-07-25T09:09:23.619Z,31.50
2018-07-25T09:11:51.710Z,31.60
2018-07-25T09:16:47.682Z,31.90
2018-07-25T09:19:16.212Z,31.70
2018-07-25T09:21:44.401Z,32.00
2018-07-25T09:24:12.695Z,32.00
2018-07-25T09:26:40.752Z,31.10
2018-07-25T09:29:08.811Z,30.70
2018-07-25T09:31:36.909Z,30.50
2018-07-25T09:34:05.212Z,30.90
2018-07-25T09:36:33.432Z,31.60
2018-07-25T09:39:01.580Z,31.60
2018-07-25T09:41:29.748Z,32.40
2018-07-25T09:43:57.849Z,33.00
2018-07-25T09:46:26.084Z,33.60
2018-07-25T09:48:54.271Z,33.60
2018-07-25T09:51:22.397Z,34.10
2018-07-25T09:53:50.516Z,34.00
2018-07-25T09:56:18.668Z,33.00
2018-07-25T09:58:46.811Z,33.00
2018-07-25T10:01:15.021Z,33.40
2018-07-25T10:03:43.149Z,33.10
2018-07-25T10:06:11.362Z,31.80
2018-07-25T10:08:39.524Z,31.00
2018-07-25T10:11:07.728Z,31.00
2018-07-25T10:13:35.869Z,31.70
2018-07-25T10:16:04.081Z,32.50
2018-07-25T10:18:32.185Z,33.40
2018-07-25T10:21:01.048Z,33.70
2018-07-25T10:23:29.175Z,33.80
2018-07-25T10:25:57.549Z,34.00
2018-07-25T10:28:25.652Z,34.30
2018-07-25T10:30:53.855Z,34.80
2018-07-25T10:33:21.971Z,34.50
2018-07-25T10:35:50.156Z,33.50
2018-07-25T10:38:18.429Z,32.90
2018-07-25T10:40:46.543Z,32.40
2018-07-25T10:43:14.655Z,32.00
2018-07-25T10:45:42.810Z,31.30
2018-07-25T10:48:10.956Z,30.80
2018-07-25T10:50:39.068Z,31.20
2018-07-25T10:53:07.401Z,31.30
2018-07-25T10:55:36.523Z,31.60
2018-07-25T10:58:04.645Z,32.60
2018-07-25T11:00:32.889Z,33.60
2018-07-25T11:03:01.040Z,34.20
2018-07-25T11:05:29.173Z,34.40
2018-07-25T11:10:25.196Z,33.20
2018-07-25T11:12:53.328Z,33.00
2018-07-25T11:15:21.421Z,32.60
2018-07-25T11:17:49.538Z,33.00
2018-07-25T11:20:17.647Z,32.80
2018-07-25T11:22:45.761Z,32.80
2018-07-25T11:25:13.889Z,32.90
2018-07-25T11:27:42.046Z,32.80
2018-07-25T11:30:10.179Z,32.50
2018-07-25T11:32:38.391Z,31.90
2018-07-25T11:35:06.387Z,31.50
2018-07-25T11:37:34.472Z,30.80
2018-07-25T11:40:02.640Z,30.20
2018-07-25T11:42:30.750Z,30.00
2018-07-25T11:44:58.841Z,30.20
2018-07-25T11:49:54.799Z,31.70
2018-07-25T11:52:22.982Z,32.50
2018-07-25T11:54:51.138Z,32.80
2018-07-25T11:57:19.248Z,32.80
2018-07-25T11:59:47.898Z,33.50
2018-07-25T12:02:15.955Z,33.40
2018-07-25T12:04:44.033Z,33.20
2018-07-25T12:07:12.145Z,32.40
2018-07-25T12:09:40.410Z,31.60
2018-07-25T12:12:08.577Z,31.60
2018-07-25T12:14:36.725Z,31.50
2018-07-25T12:17:04.935Z,31.50
2018-07-25T12:19:33.043Z,31.30
2018-07-25T12:22:01.187Z,31.00
2018-07-25T12:24:29.291Z,30.50
2018-07-25T12:26:57.553Z,30.20
2018-07-25T12:29:25.553Z,30.30
2018-07-25T12:34:21.613Z,30.50
2018-07-25T12:39:17.561Z,30.20
2018-07-25T12:41:45.722Z,30.00
2018-07-25T12:44:13.785Z,30.00
2018-07-25T12:49:09.699Z,30.10
2018-07-25T12:51:37.823Z,29.90
2018-07-25T12:54:06.063Z,30.00
2018-07-25T12:56:34.400Z,29.80
2018-07-25T12:59:02.571Z,29.60
2018-07-25T13:01:30.702Z,29.50
2018-07-25T13:06:26.746Z,29.50
2018-07-25T13:08:54.855Z,29.30
2018-07-25T13:11:23.047Z,29.30
2018-07-25T13:13:51.207Z,29.30
2018-07-25T13:18:47.382Z,29.40
2018-07-25T13:21:15.505Z,29.50
2018-07-25T13:23:43.679Z,29.50
2018-07-25T13:26:11.817Z,29.80
2018-07-25T13:28:39.973Z,29.90
2018-07-25T13:31:08.171Z,30.20
2018-07-25T13:33:36.301Z,30.30
2018-07-25T13:36:04.510Z,30.60
2018-07-25T13:38:32.592Z,30.40
2018-07-25T13:41:00.793Z,29.90
2018-07-25T13:43:29.012Z,29.60
2018-07-25T13:45:57.286Z,29.70
2018-07-25T13:48:25.337Z,29.80
2018-07-25T13:50:53.483Z,29.10
2018-07-25T13:53:21.706Z,28.40
2018-07-25T13:55:49.853Z,28.00
2018-07-25T13:58:17.978Z,28.20
2018-07-25T14:00:46.223Z,28.40
2018-07-25T14:03:14.408Z,28.40
2018-07-25T14:05:42.550Z,28.10
2018-07-25T14:08:10.721Z,27.90
2018-07-25T14:10:38.970Z,27.80
2018-07-25T14:13:07.181Z,27.90
2018-07-25T14:16:16.075Z,28.00
2018-07-25T14:18:45.588Z,28.20
2018-07-25T14:21:13.858Z,28.20
2018-07-25T14:23:43.682Z,28.30
2018-07-25T14:26:19.550Z,28.40
2018-07-25T14:34:44.940Z,28.40
2018-07-25T14:37:13.139Z,28.60
2018-07-25T14:39:41.380Z,28.40
2018-07-25T14:42:09.524Z,28.50
2018-07-25T14:44:37.795Z,28.70
2018-07-25T14:49:33.729Z,28.90
2018-07-25T14:52:01.916Z,29.00
2018-07-25T14:54:30.137Z,29.00
2018-07-25T14:56:58.441Z,29.00
2018-07-25T14:59:26.572Z,29.00
2018-07-25T15:01:54.761Z,29.10
2018-07-25T15:04:22.972Z,28.90
2018-07-25T15:06:51.137Z,28.90
2018-07-25T15:09:19.323Z,28.80
2018-07-25T15:11:48.276Z,28.60
2018-07-25T15:14:16.383Z,28.40
2018-07-25T15:19:12.421Z,28.30
2018-07-25T15:21:40.649Z,28.10
2018-07-25T15:24:08.776Z,28.00
2018-07-25T15:26:36.941Z,27.90
2018-07-25T15:31:33.106Z,27.80
2018-07-25T15:34:01.269Z,27.70
2018-07-25T15:36:40.617Z,27.80
2018-07-25T15:39:40.309Z,27.60
2018-07-25T15:42:08.539Z,27.70
2018-07-25T15:44:36.685Z,27.70
2018-07-25T15:47:04.904Z,27.60
2018-07-25T15:49:33.046Z,27.50
2018-07-25T15:52:01.383Z,27.40
2018-07-25T15:54:29.519Z,27.30
2018-07-25T15:56:57.718Z,27.20
2018-07-25T15:59:26.435Z,27.30
2018-07-25T16:01:54.672Z,27.30
2018-07-25T16:04:23.025Z,27.30
2018-07-25T16:06:51.222Z,27.20
2018-07-25T16:09:19.387Z,27.20
2018-07-25T16:11:48.078Z,27.20
2018-07-25T16:14:16.337Z,27.20
2018-07-25T16:16:44.572Z,27.20
2018-07-25T16:19:12.693Z,27.10
2018-07-25T16:21:40.888Z,27.00
2018-07-25T16:24:09.141Z,26.90
2018-07-25T16:26:38.016Z,26.90
2018-07-25T16:29:06.246Z,26.90
2018-07-25T16:31:34.453Z,26.90
2018-07-25T16:34:02.564Z,26.90
2018-07-25T16:36:30.733Z,26.90
2018-07-25T16:38:58.973Z,26.90
2018-07-25T16:41:27.196Z,26.90
2018-07-25T16:43:55.469Z,26.90
2018-07-25T16:46:23.637Z,26.90
2018-07-25T16:48:51.834Z,26.90
2018-07-25T16:51:19.996Z,26.90
2018-07-25T16:53:48.183Z,26.90
2018-07-25T16:56:16.335Z,26.90
2018-07-25T16:58:44.505Z,26.90
2018-07-25T17:01:12.687Z,26.90
2018-07-25T17:03:40.909Z,26.90
2018-07-25T17:08:36.989Z,26.70
2018-07-25T17:11:05.717Z,26.60
2018-07-25T17:13:33.837Z,26.60
2018-07-25T17:16:01.977Z,26.50
2018-07-25T17:18:30.156Z,26.50
2018-07-25T17:20:58.312Z,26.40
2018-07-25T17:23:26.524Z,26.40
2018-07-25T17:25:54.689Z,26.40
2018-07-25T17:28:23.001Z,26.40
2018-07-25T17:30:51.949Z,26.30
2018-07-25T17:33:20.207Z,26.30
2018-07-25T17:40:44.800Z,26.10
2018-07-25T17:45:41.056Z,26.00
2018-07-25T17:48:09.368Z,25.90
2018-07-25T17:50:38.883Z,25.80
2018-07-25T17:55:35.760Z,25.70
2018-07-25T17:58:04.262Z,25.60
2018-07-25T18:00:32.630Z,25.40
2018-07-25T18:03:01.630Z,25.30
2018-07-25T18:05:30.083Z,25.20
2018-07-25T18:07:58.488Z,25.00
2018-07-25T18:10:26.909Z,25.00
2018-07-25T18:13:00.650Z,24.90
2018-07-25T18:15:28.822Z,24.80
2018-07-25T18:17:56.990Z,24.70
2018-07-25T18:20:25.221Z,24.60
2018-07-25T18:22:54.340Z,24.50
2018-07-25T18:25:22.516Z,24.40
2018-07-25T18:27:50.770Z,24.40
2018-07-25T18:30:18.941Z,24.30
2018-07-25T18:32:47.236Z,24.20
2018-07-25T18:35:15.475Z,24.00
2018-07-25T18:37:43.854Z,24.00
2018-07-25T18:40:12.199Z,24.00
2018-07-25T18:42:40.587Z,23.90
2018-07-25T18:45:08.895Z,23.90
2018-07-25T18:47:37.081Z,23.80
2018-07-25T18:50:06.922Z,23.70
2018-07-25T18:52:35.091Z,23.70
2018-07-25T18:55:03.693Z,23.70
2018-07-25T18:57:31.869Z,23.70
2018-07-25T19:00:00.142Z,23.70
2018-07-25T19:02:28.445Z,23.60
2018-07-25T19:04:56.561Z,23.50
2018-07-25T19:07:25.005Z,23.50
2018-07-25T19:09:53.228Z,23.50
2018-07-25T19:12:21.398Z,23.40
2018-07-25T19:14:54.990Z,23.40
2018-07-25T19:17:23.368Z,23.40
2018-07-25T19:19:51.524Z,23.40
2018-07-25T19:22:19.955Z,23.40
2018-07-25T19:24:48.108Z,23.30
2018-07-25T19:27:16.326Z,23.30
2018-07-25T19:29:44.537Z,23.20
2018-07-25T19:32:12.919Z,23.00
2018-07-25T19:34:41.586Z,22.90
2018-07-25T19:37:10.213Z,22.90
2018-07-25T19:39:39.563Z,22.90
2018-07-25T19:42:09.442Z,22.90
2018-07-25T19:44:37.944Z,22.90
2018-07-25T19:47:06.599Z,23.00
2018-07-25T19:49:35.509Z,23.00
2018-07-25T19:52:04.080Z,23.00
2018-07-25T19:54:33.171Z,23.00
2018-07-25T19:59:30.578Z,22.80
2018-07-25T20:01:59.183Z,22.80
2018-07-25T20:04:27.607Z,22.80
2018-07-25T20:06:56.358Z,22.80
2018-07-25T20:11:53.145Z,22.90
2018-07-25T20:14:27.164Z,23.00
2018-07-25T20:19:23.552Z,23.00
2018-07-25T20:21:51.982Z,23.00
2018-07-25T20:24:20.344Z,23.00
2018-07-25T20:26:48.594Z,23.00
2018-07-25T20:29:16.710Z,23.00
2018-07-25T20:31:44.970Z,23.10
2018-07-25T20:34:13.332Z,23.10
2018-07-25T20:36:41.932Z,23.10
2018-07-25T20:39:11.816Z,23.20
2018-07-25T20:41:40.781Z,23.20
2018-07-25T20:44:09.691Z,23.20
2018-07-25T20:46:37.908Z,23.10
2018-07-25T20:49:06.565Z,23.10
2018-07-25T20:51:34.657Z,23.10
2018-07-25T20:54:03.217Z,23.10
2018-07-25T20:56:31.624Z,23.10
2018-07-25T20:59:00.107Z,23.10
2018-07-25T21:01:28.650Z,23.10
2018-07-25T21:06:24.949Z,23.00
2018-07-25T21:08:53.208Z,23.00
2018-07-25T21:13:49.770Z,22.80
2018-07-25T21:18:45.731Z,22.40
2018-07-25T21:21:13.856Z,22.30
2018-07-25T21:23:41.958Z,22.10
2018-07-25T21:26:10.078Z,22.00
2018-07-25T21:28:38.195Z,22.00
2018-07-25T21:31:06.413Z,21.90
2018-07-25T21:33:34.471Z,21.70
2018-07-25T21:36:02.639Z,21.40
2018-07-25T21:38:30.781Z,21.10
2018-07-25T21:40:58.893Z,21.00
2018-07-25T21:43:27.024Z,20.90
2018-07-25T21:48:22.998Z,20.60
2018-07-25T21:50:51.243Z,20.50
2018-07-25T21:53:19.340Z,20.40
2018-07-25T21:55:47.469Z,20.40
2018-07-25T21:58:15.639Z,20.30
2018-07-25T22:00:49.386Z,20.20
2018-07-25T22:03:17.515Z,20.10
2018-07-25T22:05:45.631Z,20.00
2018-07-25T22:08:13.924Z,19.80
2018-07-25T22:10:42.079Z,19.70
2018-07-25T22:13:10.187Z,19.70
2018-07-25T22:15:38.311Z,19.70
2018-07-25T22:20:34.843Z,19.90
2018-07-25T22:23:03.015Z,19.90
2018-07-25T22:25:32.013Z,19.80
2018-07-25T22:28:00.282Z,19.90
2018-07-25T22:30:28.473Z,19.90
2018-07-25T22:32:56.761Z,19.90
2018-07-25T22:35:24.909Z,19.90
2018-07-25T22:37:53.027Z,19.90
2018-07-25T22:40:21.082Z,19.90
2018-07-25T22:42:50.006Z,19.70
2018-07-25T22:45:18.132Z,19.80
2018-07-25T22:47:46.255Z,19.70
2018-07-25T22:50:14.365Z,19.60
2018-07-25T22:52:42.454Z,19.50
2018-07-25T22:55:10.565Z,19.50
2018-07-25T22:57:38.662Z,19.40
2018-07-25T23:00:06.935Z,19.30
2018-07-25T23:02:35.173Z,19.30
2018-07-25T23:05:03.729Z,19.20
2018-07-25T23:07:31.886Z,19.20
2018-07-25T23:09:59.978Z,19.20
2018-07-25T23:12:28.290Z,19.20
2018-07-25T23:14:56.586Z,19.20
2018-07-25T23:17:24.798Z,19.20
2018-07-25T23:19:53.071Z,19.20
2018-07-25T23:22:21.174Z,19.20
2018-07-25T23:24:49.275Z,19.10
2018-07-25T23:27:17.448Z,19.10
2018-07-25T23:29:45.601Z,19.10
2018-07-25T23:34:41.603Z,19.20
2018-07-25T23:37:09.726Z,19.20
2018-07-25T23:39:37.778Z,19.20
2018-07-25T23:42:05.961Z,19.10
2018-07-25T23:44:34.052Z,19.10
2018-07-25T23:47:02.218Z,19.10
2018-07-25T23:51:58.327Z,18.90
2018-07-25T23:54:26.415Z,18.90
2018-07-25T23:56:54.732Z,18.90
2018-07-25T23:59:23.036Z,18.90
